Boat of Garten, United Kingdom
Current Conditions -  °F | °C
As of 6:20 AM on Monday 26 Jan 2015 (Local Time) from EGPE Reporting Station
Light Rain Light Rain  
Wind Chill: -3°   Ceiling: 2100
Heat Index:   Visibility: 6mi
Dew Point:   Wind: 22mph
Humidity: 93%   Direction: 260°W
Pressure: 29.88"   Gusts: NA
Location:  57.25°N, 3.75°W
Report Text: EGPE 260620Z 26019KT 9999 -RA SCT016 BKN021 03/02 Q1012 RERA
Loading
Personal Weather Stations






























Interactive Weather Map New forecast layout! Learn more

10-Day Weather Forecast

Advertisements
Track Severe Weather on mobile